sensor_id;sensor_type;location;lat;lon;timestamp;P1;durP1;ratioP1;P2;durP2;ratioP2
68438;SDS011;55421;51.600;5.718;2023-05-14T00:00:43;12.20;;;9.40;;
68438;SDS011;55421;51.600;5.718;2023-05-14T00:03:26;12.10;;;9.50;;
68438;SDS011;55421;51.600;5.718;2023-05-14T00:05:53;11.90;;;9.40;;
68438;SDS011;55421;51.600;5.718;2023-05-14T00:08:19;14.50;;;10.00;;
68438;SDS011;55421;51.600;5.718;2023-05-14T00:10:46;13.00;;;10.10;;
68438;SDS011;55421;51.600;5.718;2023-05-14T00:13:12;13.80;;;9.90;;
68438;SDS011;55421;51.600;5.718;2023-05-14T00:15:39;13.10;;;9.60;;
68438;SDS011;55421;51.600;5.718;2023-05-14T00:18:05;11.50;;;10.30;;
68438;SDS011;55421;51.600;5.718;2023-05-14T00:20:32;13.70;;;10.60;;
68438;SDS011;55421;51.600;5.718;2023-05-14T00:22:59;13.30;;;10.70;;
68438;SDS011;55421;51.600;5.718;2023-05-14T00:25:26;14.90;;;10.70;;
68438;SDS011;55421;51.600;5.718;2023-05-14T00:27:53;15.30;;;11.20;;
68438;SDS011;55421;51.600;5.718;2023-05-14T00:30:20;15.20;;;10.40;;
68438;SDS011;55421;51.600;5.718;2023-05-14T00:32:46;14.80;;;10.20;;
68438;SDS011;55421;51.600;5.718;2023-05-14T00:35:13;12.60;;;9.90;;
68438;SDS011;55421;51.600;5.718;2023-05-14T00:37:39;16.30;;;10.50;;
68438;SDS011;55421;51.600;5.718;2023-05-14T00:40:06;15.70;;;11.00;;
68438;SDS011;55421;51.600;5.718;2023-05-14T00:42:33;15.20;;;11.20;;
68438;SDS011;55421;51.600;5.718;2023-05-14T00:45:00;16.40;;;11.30;;
68438;SDS011;55421;51.600;5.718;2023-05-14T00:47:27;14.30;;;11.00;;
68438;SDS011;55421;51.600;5.718;2023-05-14T00:49:53;14.50;;;10.50;;
68438;SDS011;55421;51.600;5.718;2023-05-14T00:52:20;16.40;;;11.10;;
68438;SDS011;55421;51.600;5.718;2023-05-14T00:54:47;11.80;;;10.40;;
68438;SDS011;55421;51.600;5.718;2023-05-14T00:57:14;16.20;;;10.60;;
68438;SDS011;55421;51.600;5.718;2023-05-14T00:59:44;18.80;;;11.10;;
68438;SDS011;55421;51.600;5.718;2023-05-14T01:02:11;17.80;;;11.10;;
68438;SDS011;55421;51.600;5.718;2023-05-14T01:04:37;16.00;;;11.00;;
68438;SDS011;55421;51.600;5.718;2023-05-14T01:07:29;13.60;;;10.20;;
68438;SDS011;55421;51.600;5.718;2023-05-14T01:10:15;16.40;;;10.90;;
68438;SDS011;55421;51.600;5.718;2023-05-14T01:13:09;13.70;;;11.00;;
68438;SDS011;55421;51.600;5.718;2023-05-14T01:15:44;13.70;;;11.40;;
68438;SDS011;55421;51.600;5.718;2023-05-14T01:18:16;17.60;;;12.40;;
68438;SDS011;55421;51.600;5.718;2023-05-14T01:20:44;17.00;;;11.60;;
68438;SDS011;55421;51.600;5.718;2023-05-14T01:23:11;12.30;;;11.00;;
68438;SDS011;55421;51.600;5.718;2023-05-14T01:25:37;14.40;;;11.70;;
68438;SDS011;55421;51.600;5.718;2023-05-14T01:30:56;17.50;;;11.80;;
68438;SDS011;55421;51.600;5.718;2023-05-14T01:33:28;16.80;;;11.30;;
68438;SDS011;55421;51.600;5.718;2023-05-14T01:35:56;16.20;;;12.30;;
68438;SDS011;55421;51.600;5.718;2023-05-14T01:38:24;16.30;;;12.30;;
68438;SDS011;55421;51.600;5.718;2023-05-14T01:40:56;17.70;;;12.40;;
68438;SDS011;55421;51.600;5.718;2023-05-14T01:43:24;16.30;;;12.10;;
68438;SDS011;55421;51.600;5.718;2023-05-14T01:45:51;15.30;;;12.20;;
68438;SDS011;55421;51.600;5.718;2023-05-14T01:48:17;15.30;;;12.00;;
68438;SDS011;55421;51.600;5.718;2023-05-14T01:50:44;14.70;;;11.70;;
68438;SDS011;55421;51.600;5.718;2023-05-14T01:53:11;14.80;;;11.90;;
68438;SDS011;55421;51.600;5.718;2023-05-14T01:55:37;17.80;;;12.20;;
68438;SDS011;55421;51.600;5.718;2023-05-14T01:58:04;18.00;;;11.70;;
68438;SDS011;55421;51.600;5.718;2023-05-14T02:00:30;13.80;;;11.80;;
68438;SDS011;55421;51.600;5.718;2023-05-14T02:02:57;18.80;;;12.80;;
68438;SDS011;55421;51.600;5.718;2023-05-14T02:05:23;19.20;;;12.70;;
68438;SDS011;55421;51.600;5.718;2023-05-14T02:07:50;20.70;;;14.00;;
68438;SDS011;55421;51.600;5.718;2023-05-14T02:10:16;21.60;;;13.50;;
68438;SDS011;55421;51.600;5.718;2023-05-14T02:12:43;15.70;;;13.10;;
68438;SDS011;55421;51.600;5.718;2023-05-14T02:15:09;16.80;;;13.00;;
68438;SDS011;55421;51.600;5.718;2023-05-14T02:17:36;14.90;;;12.30;;
68438;SDS011;55421;51.600;5.718;2023-05-14T02:20:03;16.40;;;12.50;;
68438;SDS011;55421;51.600;5.718;2023-05-14T02:22:30;21.00;;;12.70;;
68438;SDS011;55421;51.600;5.718;2023-05-14T02:24:57;13.60;;;11.90;;
68438;SDS011;55421;51.600;5.718;2023-05-14T02:27:23;16.80;;;12.20;;
68438;SDS011;55421;51.600;5.718;2023-05-14T02:29:52;18.40;;;12.20;;
68438;SDS011;55421;51.600;5.718;2023-05-14T02:32:19;18.30;;;13.00;;
68438;SDS011;55421;51.600;5.718;2023-05-14T02:34:45;19.90;;;13.50;;
68438;SDS011;55421;51.600;5.718;2023-05-14T02:37:12;22.30;;;14.50;;
68438;SDS011;55421;51.600;5.718;2023-05-14T02:39:38;17.90;;;13.80;;
68438;SDS011;55421;51.600;5.718;2023-05-14T02:42:05;18.50;;;12.60;;
68438;SDS011;55421;51.600;5.718;2023-05-14T02:44:32;14.20;;;12.60;;
68438;SDS011;55421;51.600;5.718;2023-05-14T02:46:58;17.40;;;12.90;;
68438;SDS011;55421;51.600;5.718;2023-05-14T02:49:25;17.70;;;12.70;;
68438;SDS011;55421;51.600;5.718;2023-05-14T02:51:51;16.70;;;13.10;;
68438;SDS011;55421;51.600;5.718;2023-05-14T02:54:19;18.80;;;13.50;;
68438;SDS011;55421;51.600;5.718;2023-05-14T02:56:46;21.50;;;13.00;;
68438;SDS011;55421;51.600;5.718;2023-05-14T02:59:12;15.70;;;12.70;;
68438;SDS011;55421;51.600;5.718;2023-05-14T03:01:39;17.30;;;13.90;;
68438;SDS011;55421;51.600;5.718;2023-05-14T03:04:05;20.10;;;13.90;;
68438;SDS011;55421;51.600;5.718;2023-05-14T03:06:32;18.90;;;14.10;;
68438;SDS011;55421;51.600;5.718;2023-05-14T03:08:59;16.90;;;13.10;;
68438;SDS011;55421;51.600;5.718;2023-05-14T03:11:26;19.50;;;14.70;;
68438;SDS011;55421;51.600;5.718;2023-05-14T03:13:53;18.70;;;14.70;;
68438;SDS011;55421;51.600;5.718;2023-05-14T03:16:19;20.10;;;14.80;;
68438;SDS011;55421;51.600;5.718;2023-05-14T03:18:46;22.00;;;14.30;;
68438;SDS011;55421;51.600;5.718;2023-05-14T03:21:12;18.60;;;14.30;;
68438;SDS011;55421;51.600;5.718;2023-05-14T03:23:39;15.60;;;13.10;;
68438;SDS011;55421;51.600;5.718;2023-05-14T03:26:06;16.20;;;13.30;;
68438;SDS011;55421;51.600;5.718;2023-05-14T03:28:32;17.00;;;13.20;;
68438;SDS011;55421;51.600;5.718;2023-05-14T03:30:59;16.50;;;13.70;;
68438;SDS011;55421;51.600;5.718;2023-05-14T03:33:26;17.50;;;13.60;;
68438;SDS011;55421;51.600;5.718;2023-05-14T03:35:53;18.10;;;12.90;;
68438;SDS011;55421;51.600;5.718;2023-05-14T03:38:19;17.90;;;13.70;;
68438;SDS011;55421;51.600;5.718;2023-05-14T03:40:46;16.00;;;13.60;;
68438;SDS011;55421;51.600;5.718;2023-05-14T03:43:12;18.90;;;14.30;;
68438;SDS011;55421;51.600;5.718;2023-05-14T03:45:39;19.80;;;13.80;;
68438;SDS011;55421;51.600;5.718;2023-05-14T03:48:05;16.20;;;14.40;;
68438;SDS011;55421;51.600;5.718;2023-05-14T03:50:32;20.80;;;14.70;;
68438;SDS011;55421;51.600;5.718;2023-05-14T03:52:59;20.30;;;14.80;;
68438;SDS011;55421;51.600;5.718;2023-05-14T03:55:25;15.70;;;13.80;;
68438;SDS011;55421;51.600;5.718;2023-05-14T03:57:52;19.00;;;14.40;;
68438;SDS011;55421;51.600;5.718;2023-05-14T04:00:18;22.90;;;14.00;;
68438;SDS011;55421;51.600;5.718;2023-05-14T04:02:46;19.00;;;13.50;;
68438;SDS011;55421;51.600;5.718;2023-05-14T04:05:12;19.70;;;14.20;;
68438;SDS011;55421;51.600;5.718;2023-05-14T04:07:39;17.50;;;13.70;;
68438;SDS011;55421;51.600;5.718;2023-05-14T04:10:06;20.10;;;14.20;;
68438;SDS011;55421;51.600;5.718;2023-05-14T04:12:33;18.40;;;14.30;;
68438;SDS011;55421;51.600;5.718;2023-05-14T04:14:59;17.20;;;13.20;;
68438;SDS011;55421;51.600;5.718;2023-05-14T04:17:26;17.70;;;14.10;;
68438;SDS011;55421;51.600;5.718;2023-05-14T04:19:52;17.40;;;14.00;;
68438;SDS011;55421;51.600;5.718;2023-05-14T04:22:19;18.30;;;14.30;;
68438;SDS011;55421;51.600;5.718;2023-05-14T04:24:45;20.40;;;14.70;;
68438;SDS011;55421;51.600;5.718;2023-05-14T04:27:19;19.10;;;14.30;;
68438;SDS011;55421;51.600;5.718;2023-05-14T04:29:47;18.10;;;13.20;;
68438;SDS011;55421;51.600;5.718;2023-05-14T04:32:14;18.40;;;14.00;;
68438;SDS011;55421;51.600;5.718;2023-05-14T04:34:42;16.60;;;13.40;;
68438;SDS011;55421;51.600;5.718;2023-05-14T04:37:09;19.00;;;13.40;;
68438;SDS011;55421;51.600;5.718;2023-05-14T04:39:35;16.50;;;13.60;;
68438;SDS011;55421;51.600;5.718;2023-05-14T04:42:02;16.60;;;13.00;;
68438;SDS011;55421;51.600;5.718;2023-05-14T04:44:30;21.40;;;14.00;;
68438;SDS011;55421;51.600;5.718;2023-05-14T04:46:56;19.10;;;14.60;;
68438;SDS011;55421;51.600;5.718;2023-05-14T04:49:23;20.00;;;15.10;;
68438;SDS011;55421;51.600;5.718;2023-05-14T04:51:49;19.70;;;15.10;;
68438;SDS011;55421;51.600;5.718;2023-05-14T04:54:16;19.30;;;15.00;;
68438;SDS011;55421;51.600;5.718;2023-05-14T04:56:43;19.30;;;14.30;;
68438;SDS011;55421;51.600;5.718;2023-05-14T04:59:09;17.80;;;14.80;;
68438;SDS011;55421;51.600;5.718;2023-05-14T05:01:36;16.90;;;13.80;;
68438;SDS011;55421;51.600;5.718;2023-05-14T05:04:02;20.70;;;15.10;;
68438;SDS011;55421;51.600;5.718;2023-05-14T05:06:29;19.80;;;14.20;;
68438;SDS011;55421;51.600;5.718;2023-05-14T05:08:56;21.40;;;14.60;;
68438;SDS011;55421;51.600;5.718;2023-05-14T05:11:23;17.90;;;14.90;;
68438;SDS011;55421;51.600;5.718;2023-05-14T05:13:49;23.30;;;14.40;;
68438;SDS011;55421;51.600;5.718;2023-05-14T05:16:16;19.60;;;14.90;;
68438;SDS011;55421;51.600;5.718;2023-05-14T05:18:42;18.90;;;14.30;;
68438;SDS011;55421;51.600;5.718;2023-05-14T05:21:10;24.60;;;15.50;;
68438;SDS011;55421;51.600;5.718;2023-05-14T05:23:36;18.70;;;14.10;;
68438;SDS011;55421;51.600;5.718;2023-05-14T05:26:03;24.00;;;16.10;;
68438;SDS011;55421;51.600;5.718;2023-05-14T05:28:29;23.30;;;16.00;;
68438;SDS011;55421;51.600;5.718;2023-05-14T05:30:56;22.20;;;15.00;;
68438;SDS011;55421;51.600;5.718;2023-05-14T05:33:22;20.30;;;15.10;;
68438;SDS011;55421;51.600;5.718;2023-05-14T05:35:49;22.90;;;15.00;;
68438;SDS011;55421;51.600;5.718;2023-05-14T05:38:15;20.60;;;14.50;;
68438;SDS011;55421;51.600;5.718;2023-05-14T05:40:43;21.70;;;16.10;;
68438;SDS011;55421;51.600;5.718;2023-05-14T05:43:09;21.40;;;16.70;;
68438;SDS011;55421;51.600;5.718;2023-05-14T05:45:36;26.70;;;16.90;;
68438;SDS011;55421;51.600;5.718;2023-05-14T05:48:03;25.40;;;15.70;;
68438;SDS011;55421;51.600;5.718;2023-05-14T05:50:30;23.90;;;15.80;;
68438;SDS011;55421;51.600;5.718;2023-05-14T05:52:57;19.30;;;15.70;;
68438;SDS011;55421;51.600;5.718;2023-05-14T05:55:27;18.10;;;15.10;;
68438;SDS011;55421;51.600;5.718;2023-05-14T05:57:55;26.80;;;15.80;;
68438;SDS011;55421;51.600;5.718;2023-05-14T06:00:22;20.70;;;15.50;;
68438;SDS011;55421;51.600;5.718;2023-05-14T06:02:49;23.30;;;17.20;;
68438;SDS011;55421;51.600;5.718;2023-05-14T06:05:15;24.60;;;17.10;;
68438;SDS011;55421;51.600;5.718;2023-05-14T06:07:42;25.40;;;18.70;;
68438;SDS011;55421;51.600;5.718;2023-05-14T06:10:08;20.80;;;17.10;;
68438;SDS011;55421;51.600;5.718;2023-05-14T06:12:35;25.70;;;18.00;;
68438;SDS011;55421;51.600;5.718;2023-05-14T06:15:02;24.00;;;17.00;;
68438;SDS011;55421;51.600;5.718;2023-05-14T06:17:29;22.20;;;16.60;;
68438;SDS011;55421;51.600;5.718;2023-05-14T06:19:55;22.00;;;16.80;;
68438;SDS011;55421;51.600;5.718;2023-05-14T06:22:22;27.50;;;17.60;;
68438;SDS011;55421;51.600;5.718;2023-05-14T06:24:48;18.70;;;16.10;;
68438;SDS011;55421;51.600;5.718;2023-05-14T06:27:15;21.80;;;16.30;;
68438;SDS011;55421;51.600;5.718;2023-05-14T06:29:41;23.30;;;17.60;;
68438;SDS011;55421;51.600;5.718;2023-05-14T06:32:08;24.50;;;17.40;;
68438;SDS011;55421;51.600;5.718;2023-05-14T06:34:35;26.90;;;18.00;;
68438;SDS011;55421;51.600;5.718;2023-05-14T06:37:02;27.80;;;19.00;;
68438;SDS011;55421;51.600;5.718;2023-05-14T06:39:29;23.60;;;17.20;;
68438;SDS011;55421;51.600;5.718;2023-05-14T06:41:55;22.30;;;16.30;;
68438;SDS011;55421;51.600;5.718;2023-05-14T06:44:22;19.70;;;15.50;;
68438;SDS011;55421;51.600;5.718;2023-05-14T06:46:48;20.70;;;16.60;;
68438;SDS011;55421;51.600;5.718;2023-05-14T06:49:15;20.60;;;16.90;;
68438;SDS011;55421;51.600;5.718;2023-05-14T06:51:41;20.40;;;16.80;;
68438;SDS011;55421;51.600;5.718;2023-05-14T06:54:08;23.30;;;17.00;;
68438;SDS011;55421;51.600;5.718;2023-05-14T06:56:34;23.40;;;17.70;;
68438;SDS011;55421;51.600;5.718;2023-05-14T06:59:01;21.30;;;16.80;;
68438;SDS011;55421;51.600;5.718;2023-05-14T07:01:28;16.70;;;14.10;;
68438;SDS011;55421;51.600;5.718;2023-05-14T07:03:55;23.50;;;16.40;;
68438;SDS011;55421;51.600;5.718;2023-05-14T07:06:22;22.20;;;17.50;;
68438;SDS011;55421;51.600;5.718;2023-05-14T07:08:49;22.70;;;16.70;;
68438;SDS011;55421;51.600;5.718;2023-05-14T07:11:15;19.20;;;14.30;;
68438;SDS011;55421;51.600;5.718;2023-05-14T07:13:42;25.50;;;15.90;;
68438;SDS011;55421;51.600;5.718;2023-05-14T07:16:09;20.10;;;16.20;;
68438;SDS011;55421;51.600;5.718;2023-05-14T07:18:35;25.90;;;17.50;;
68438;SDS011;55421;51.600;5.718;2023-05-14T07:21:02;25.30;;;16.80;;
68438;SDS011;55421;51.600;5.718;2023-05-14T07:23:32;25.90;;;16.90;;
68438;SDS011;55421;51.600;5.718;2023-05-14T07:26:02;21.30;;;16.10;;
68438;SDS011;55421;51.600;5.718;2023-05-14T07:30:59;22.50;;;16.20;;
68438;SDS011;55421;51.600;5.718;2023-05-14T07:33:25;21.50;;;17.00;;
68438;SDS011;55421;51.600;5.718;2023-05-14T07:35:52;23.10;;;17.00;;
68438;SDS011;55421;51.600;5.718;2023-05-14T07:38:19;19.10;;;15.10;;
68438;SDS011;55421;51.600;5.718;2023-05-14T07:40:46;19.40;;;15.10;;
68438;SDS011;55421;51.600;5.718;2023-05-14T07:43:12;19.20;;;16.30;;
68438;SDS011;55421;51.600;5.718;2023-05-14T07:45:39;24.30;;;15.20;;
68438;SDS011;55421;51.600;5.718;2023-05-14T07:48:06;21.00;;;16.40;;
68438;SDS011;55421;51.600;5.718;2023-05-14T07:50:32;23.00;;;15.30;;
68438;SDS011;55421;51.600;5.718;2023-05-14T07:52:59;20.80;;;15.70;;
68438;SDS011;55421;51.600;5.718;2023-05-14T07:55:25;21.40;;;15.90;;
68438;SDS011;55421;51.600;5.718;2023-05-14T07:57:52;21.80;;;15.80;;
68438;SDS011;55421;51.600;5.718;2023-05-14T08:00:19;19.70;;;15.00;;
68438;SDS011;55421;51.600;5.718;2023-05-14T08:02:45;17.70;;;14.70;;
68438;SDS011;55421;51.600;5.718;2023-05-14T08:05:12;20.80;;;15.30;;
68438;SDS011;55421;51.600;5.718;2023-05-14T08:07:39;19.50;;;15.50;;
68438;SDS011;55421;51.600;5.718;2023-05-14T08:10:07;14.50;;;12.40;;
68438;SDS011;55421;51.600;5.718;2023-05-14T08:12:34;25.90;;;14.40;;
68438;SDS011;55421;51.600;5.718;2023-05-14T08:15:01;17.70;;;13.80;;
68438;SDS011;55421;51.600;5.718;2023-05-14T08:17:27;16.20;;;13.70;;
68438;SDS011;55421;51.600;5.718;2023-05-14T08:19:54;18.00;;;13.90;;
68438;SDS011;55421;51.600;5.718;2023-05-14T08:22:21;16.00;;;13.20;;
68438;SDS011;55421;51.600;5.718;2023-05-14T08:24:47;16.70;;;13.60;;
68438;SDS011;55421;51.600;5.718;2023-05-14T08:27:14;18.60;;;14.30;;
68438;SDS011;55421;51.600;5.718;2023-05-14T08:29:41;18.90;;;14.20;;
68438;SDS011;55421;51.600;5.718;2023-05-14T08:32:08;18.80;;;13.50;;
68438;SDS011;55421;51.600;5.718;2023-05-14T08:34:34;17.00;;;14.60;;
68438;SDS011;55421;51.600;5.718;2023-05-14T08:37:01;19.70;;;13.80;;
68438;SDS011;55421;51.600;5.718;2023-05-14T08:39:28;19.50;;;14.50;;
68438;SDS011;55421;51.600;5.718;2023-05-14T08:41:56;18.40;;;13.80;;
68438;SDS011;55421;51.600;5.718;2023-05-14T08:44:32;18.30;;;13.10;;
68438;SDS011;55421;51.600;5.718;2023-05-14T08:47:04;15.10;;;12.80;;
68438;SDS011;55421;51.600;5.718;2023-05-14T08:49:39;22.80;;;15.10;;
68438;SDS011;55421;51.600;5.718;2023-05-14T08:52:09;17.50;;;13.10;;
68438;SDS011;55421;51.600;5.718;2023-05-14T08:54:36;15.90;;;12.60;;
68438;SDS011;55421;51.600;5.718;2023-05-14T08:57:03;14.40;;;11.90;;
68438;SDS011;55421;51.600;5.718;2023-05-14T08:59:32;18.80;;;13.60;;
68438;SDS011;55421;51.600;5.718;2023-05-14T09:02:41;16.50;;;13.80;;
68438;SDS011;55421;51.600;5.718;2023-05-14T09:05:25;18.00;;;13.80;;
68438;SDS011;55421;51.600;5.718;2023-05-14T09:08:16;13.20;;;11.50;;
68438;SDS011;55421;51.600;5.718;2023-05-14T09:10:54;17.90;;;14.10;;
68438;SDS011;55421;51.600;5.718;2023-05-14T09:13:20;23.50;;;16.50;;
68438;SDS011;55421;51.600;5.718;2023-05-14T09:15:48;20.10;;;14.20;;
68438;SDS011;55421;51.600;5.718;2023-05-14T09:18:16;18.20;;;15.20;;
68438;SDS011;55421;51.600;5.718;2023-05-14T09:20:42;20.90;;;16.30;;
68438;SDS011;55421;51.600;5.718;2023-05-14T09:23:09;19.60;;;15.40;;
68438;SDS011;55421;51.600;5.718;2023-05-14T09:25:35;18.00;;;15.20;;
68438;SDS011;55421;51.600;5.718;2023-05-14T09:28:07;19.40;;;15.20;;
68438;SDS011;55421;51.600;5.718;2023-05-14T09:30:34;19.60;;;15.80;;
68438;SDS011;55421;51.600;5.718;2023-05-14T09:33:02;19.30;;;15.30;;
68438;SDS011;55421;51.600;5.718;2023-05-14T09:35:30;21.00;;;14.90;;
68438;SDS011;55421;51.600;5.718;2023-05-14T09:37:57;18.90;;;14.50;;
68438;SDS011;55421;51.600;5.718;2023-05-14T09:40:24;17.60;;;13.60;;
68438;SDS011;55421;51.600;5.718;2023-05-14T09:42:51;18.90;;;13.30;;
68438;SDS011;55421;51.600;5.718;2023-05-14T09:45:17;20.50;;;14.60;;
68438;SDS011;55421;51.600;5.718;2023-05-14T09:47:44;15.00;;;10.70;;
68438;SDS011;55421;51.600;5.718;2023-05-14T09:50:10;16.60;;;13.00;;
68438;SDS011;55421;51.600;5.718;2023-05-14T09:52:37;19.20;;;13.00;;
68438;SDS011;55421;51.600;5.718;2023-05-14T09:55:04;19.00;;;11.30;;
68438;SDS011;55421;51.600;5.718;2023-05-14T09:57:31;15.70;;;13.90;;
68438;SDS011;55421;51.600;5.718;2023-05-14T09:59:58;16.90;;;12.90;;
68438;SDS011;55421;51.600;5.718;2023-05-14T10:02:29;14.60;;;11.60;;
68438;SDS011;55421;51.600;5.718;2023-05-14T10:05:06;15.00;;;11.10;;
68438;SDS011;55421;51.600;5.718;2023-05-14T10:07:41;13.30;;;10.70;;
68438;SDS011;55421;51.600;5.718;2023-05-14T10:10:19;11.40;;;10.00;;
68438;SDS011;55421;51.600;5.718;2023-05-14T10:12:57;11.40;;;9.40;;
68438;SDS011;55421;51.600;5.718;2023-05-14T10:15:36;12.20;;;9.40;;
68438;SDS011;55421;51.600;5.718;2023-05-14T10:18:09;11.90;;;10.50;;
68438;SDS011;55421;51.600;5.718;2023-05-14T10:20:39;12.40;;;10.90;;
68438;SDS011;55421;51.600;5.718;2023-05-14T10:23:06;11.80;;;9.30;;
68438;SDS011;55421;51.600;5.718;2023-05-14T10:25:34;11.50;;;9.70;;
68438;SDS011;55421;51.600;5.718;2023-05-14T10:28:03;13.50;;;10.20;;
68438;SDS011;55421;51.600;5.718;2023-05-14T10:30:31;14.40;;;10.20;;
68438;SDS011;55421;51.600;5.718;2023-05-14T10:33:08;11.60;;;9.90;;
68438;SDS011;55421;51.600;5.718;2023-05-14T10:35:58;15.00;;;11.10;;
68438;SDS011;55421;51.600;5.718;2023-05-14T10:38:32;12.40;;;11.00;;
68438;SDS011;55421;51.600;5.718;2023-05-14T10:41:04;11.80;;;9.00;;
68438;SDS011;55421;51.600;5.718;2023-05-14T10:43:36;12.00;;;9.40;;
68438;SDS011;55421;51.600;5.718;2023-05-14T10:46:04;13.50;;;10.70;;
68438;SDS011;55421;51.600;5.718;2023-05-14T10:48:32;10.80;;;9.70;;
68438;SDS011;55421;51.600;5.718;2023-05-14T10:51:00;17.40;;;10.60;;
68438;SDS011;55421;51.600;5.718;2023-05-14T10:53:39;11.80;;;9.70;;
68438;SDS011;55421;51.600;5.718;2023-05-14T10:56:09;10.40;;;7.90;;
68438;SDS011;55421;51.600;5.718;2023-05-14T10:58:40;11.70;;;8.50;;
68438;SDS011;55421;51.600;5.718;2023-05-14T11:01:09;11.80;;;9.30;;
68438;SDS011;55421;51.600;5.718;2023-05-14T11:03:42;11.40;;;9.50;;
68438;SDS011;55421;51.600;5.718;2023-05-14T11:06:11;11.30;;;9.40;;
68438;SDS011;55421;51.600;5.718;2023-05-14T11:08:39;11.70;;;9.20;;
68438;SDS011;55421;51.600;5.718;2023-05-14T11:11:08;10.70;;;9.30;;
68438;SDS011;55421;51.600;5.718;2023-05-14T11:13:35;9.60;;;8.60;;
68438;SDS011;55421;51.600;5.718;2023-05-14T11:16:01;9.40;;;8.40;;
68438;SDS011;55421;51.600;5.718;2023-05-14T11:18:31;10.00;;;8.90;;
68438;SDS011;55421;51.600;5.718;2023-05-14T11:21:06;9.70;;;8.70;;
68438;SDS011;55421;51.600;5.718;2023-05-14T11:23:33;10.60;;;9.00;;
68438;SDS011;55421;51.600;5.718;2023-05-14T11:26:00;9.90;;;8.10;;
68438;SDS011;55421;51.600;5.718;2023-05-14T11:28:26;11.00;;;8.40;;
68438;SDS011;55421;51.600;5.718;2023-05-14T11:30:53;9.50;;;7.70;;
68438;SDS011;55421;51.600;5.718;2023-05-14T11:33:20;7.80;;;7.00;;
68438;SDS011;55421;51.600;5.718;2023-05-14T11:35:46;12.00;;;8.20;;
68438;SDS011;55421;51.600;5.718;2023-05-14T11:38:17;8.10;;;7.30;;
68438;SDS011;55421;51.600;5.718;2023-05-14T11:40:55;11.30;;;8.70;;
68438;SDS011;55421;51.600;5.718;2023-05-14T11:43:23;12.30;;;8.30;;
68438;SDS011;55421;51.600;5.718;2023-05-14T11:45:52;7.50;;;6.70;;
68438;SDS011;55421;51.600;5.718;2023-05-14T11:48:20;10.10;;;8.80;;
68438;SDS011;55421;51.600;5.718;2023-05-14T11:50:49;9.40;;;8.40;;
68438;SDS011;55421;51.600;5.718;2023-05-14T11:53:25;9.90;;;8.50;;
68438;SDS011;55421;51.600;5.718;2023-05-14T11:55:53;10.10;;;9.10;;
68438;SDS011;55421;51.600;5.718;2023-05-14T11:58:20;11.10;;;8.40;;
68438;SDS011;55421;51.600;5.718;2023-05-14T12:00:51;10.60;;;7.60;;
68438;SDS011;55421;51.600;5.718;2023-05-14T12:03:18;9.70;;;6.40;;
68438;SDS011;55421;51.600;5.718;2023-05-14T12:05:58;7.50;;;6.80;;
68438;SDS011;55421;51.600;5.718;2023-05-14T12:08:30;8.90;;;6.80;;
68438;SDS011;55421;51.600;5.718;2023-05-14T12:10:59;8.20;;;6.50;;
68438;SDS011;55421;51.600;5.718;2023-05-14T12:13:27;6.10;;;5.50;;
68438;SDS011;55421;51.600;5.718;2023-05-14T12:16:00;9.10;;;5.70;;
68438;SDS011;55421;51.600;5.718;2023-05-14T12:18:29;7.40;;;5.70;;
68438;SDS011;55421;51.600;5.718;2023-05-14T12:21:03;7.30;;;5.60;;
68438;SDS011;55421;51.600;5.718;2023-05-14T12:23:33;6.20;;;5.40;;
68438;SDS011;55421;51.600;5.718;2023-05-14T12:26:04;7.60;;;6.00;;
68438;SDS011;55421;51.600;5.718;2023-05-14T12:28:32;7.30;;;5.70;;
68438;SDS011;55421;51.600;5.718;2023-05-14T12:30:58;7.30;;;5.80;;
68438;SDS011;55421;51.600;5.718;2023-05-14T12:33:25;7.20;;;5.80;;
68438;SDS011;55421;51.600;5.718;2023-05-14T12:35:52;6.60;;;5.00;;
68438;SDS011;55421;51.600;5.718;2023-05-14T12:38:19;7.00;;;3.90;;
68438;SDS011;55421;51.600;5.718;2023-05-14T12:40:47;5.70;;;4.50;;
68438;SDS011;55421;51.600;5.718;2023-05-14T12:43:14;5.70;;;4.00;;
68438;SDS011;55421;51.600;5.718;2023-05-14T12:45:40;5.40;;;4.90;;
68438;SDS011;55421;51.600;5.718;2023-05-14T12:48:07;5.90;;;4.50;;
68438;SDS011;55421;51.600;5.718;2023-05-14T12:50:33;4.60;;;3.70;;
68438;SDS011;55421;51.600;5.718;2023-05-14T12:53:00;4.50;;;3.40;;
68438;SDS011;55421;51.600;5.718;2023-05-14T12:55:26;6.70;;;4.10;;
68438;SDS011;55421;51.600;5.718;2023-05-14T12:57:53;8.40;;;4.10;;
68438;SDS011;55421;51.600;5.718;2023-05-14T13:00:20;6.20;;;4.30;;
68438;SDS011;55421;51.600;5.718;2023-05-14T13:02:46;7.00;;;4.40;;
68438;SDS011;55421;51.600;5.718;2023-05-14T13:05:13;6.00;;;5.50;;
68438;SDS011;55421;51.600;5.718;2023-05-14T13:07:40;6.30;;;5.10;;
68438;SDS011;55421;51.600;5.718;2023-05-14T13:10:07;5.20;;;4.70;;
68438;SDS011;55421;51.600;5.718;2023-05-14T13:12:34;7.90;;;5.40;;
68438;SDS011;55421;51.600;5.718;2023-05-14T13:15:00;5.50;;;4.60;;
68438;SDS011;55421;51.600;5.718;2023-05-14T13:17:27;7.20;;;5.30;;
68438;SDS011;55421;51.600;5.718;2023-05-14T13:19:53;6.80;;;5.50;;
68438;SDS011;55421;51.600;5.718;2023-05-14T13:22:20;5.80;;;5.20;;
68438;SDS011;55421;51.600;5.718;2023-05-14T13:24:47;6.60;;;5.10;;
68438;SDS011;55421;51.600;5.718;2023-05-14T13:27:13;6.10;;;5.20;;
68438;SDS011;55421;51.600;5.718;2023-05-14T13:29:41;6.10;;;5.00;;
68438;SDS011;55421;51.600;5.718;2023-05-14T13:32:08;7.50;;;6.30;;
68438;SDS011;55421;51.600;5.718;2023-05-14T13:34:34;6.80;;;5.40;;
68438;SDS011;55421;51.600;5.718;2023-05-14T13:37:01;7.20;;;5.20;;
68438;SDS011;55421;51.600;5.718;2023-05-14T13:39:29;6.30;;;5.30;;
68438;SDS011;55421;51.600;5.718;2023-05-14T13:41:55;6.90;;;5.20;;
68438;SDS011;55421;51.600;5.718;2023-05-14T13:44:22;6.20;;;5.20;;
68438;SDS011;55421;51.600;5.718;2023-05-14T13:46:49;7.10;;;5.20;;
68438;SDS011;55421;51.600;5.718;2023-05-14T13:49:15;5.70;;;4.20;;
68438;SDS011;55421;51.600;5.718;2023-05-14T13:51:42;5.50;;;4.30;;
68438;SDS011;55421;51.600;5.718;2023-05-14T13:54:09;6.40;;;4.50;;
68438;SDS011;55421;51.600;5.718;2023-05-14T13:56:35;8.20;;;4.30;;
68438;SDS011;55421;51.600;5.718;2023-05-14T13:59:02;4.90;;;4.50;;
68438;SDS011;55421;51.600;5.718;2023-05-14T14:01:29;6.90;;;4.60;;
68438;SDS011;55421;51.600;5.718;2023-05-14T14:03:56;5.30;;;4.80;;
68438;SDS011;55421;51.600;5.718;2023-05-14T14:06:24;8.50;;;4.60;;
68438;SDS011;55421;51.600;5.718;2023-05-14T14:08:52;4.80;;;4.20;;
68438;SDS011;55421;51.600;5.718;2023-05-14T14:11:18;4.20;;;3.90;;
68438;SDS011;55421;51.600;5.718;2023-05-14T14:13:45;4.00;;;3.60;;
68438;SDS011;55421;51.600;5.718;2023-05-14T14:16:12;3.50;;;3.10;;
68438;SDS011;55421;51.600;5.718;2023-05-14T14:18:38;4.00;;;3.50;;
68438;SDS011;55421;51.600;5.718;2023-05-14T14:21:05;4.40;;;3.50;;
68438;SDS011;55421;51.600;5.718;2023-05-14T14:23:31;5.50;;;4.30;;
68438;SDS011;55421;51.600;5.718;2023-05-14T14:26:01;6.40;;;4.40;;
68438;SDS011;55421;51.600;5.718;2023-05-14T14:28:28;5.50;;;4.30;;
68438;SDS011;55421;51.600;5.718;2023-05-14T14:30:56;4.10;;;3.80;;
68438;SDS011;55421;51.600;5.718;2023-05-14T14:33:23;4.00;;;3.60;;
68438;SDS011;55421;51.600;5.718;2023-05-14T14:35:50;4.10;;;3.70;;
68438;SDS011;55421;51.600;5.718;2023-05-14T14:38:17;6.50;;;3.50;;